TimeCDT,TemperatureF,Dew PointF,Humidity,Sea Level PressureIn,VisibilityMPH,Wind Direction,Wind SpeedMPH,Gust SpeedMPH,PrecipitationIn,Events,Conditions,WindDirDegrees,DateUTC
12:55 AM,63.3,59.7,88,30.16,10.0,NNW,4.6,-,N/A,,Clear,340,2012-10-11 05:55:00
1:55 AM,62.4,59.5,90,30.16,10.0,North,6.9,-,N/A,,Clear,360,2012-10-11 06:55:00
2:55 AM,62.4,59.0,89,30.15,10.0,North,5.8,-,N/A,,Clear,360,2012-10-11 07:55:00
3:56 AM,61.3,58.5,90,30.16,10.0,ENE,1.2,-,N/A,,Clear,60,2012-10-11 08:56:00
4:55 AM,59.7,57.4,92,30.17,10.0,North,3.5,-,N/A,,Clear,10,2012-10-11 09:55:00
4:56 AM,59.7,57.4,92,30.17,10.0,North,4.6,-,N/A,,Partly Cloudy,10,2012-10-11 09:56:00
5:55 AM,59.5,57.2,92,30.18,9.0,North,6.9,-,N/A,,Partly Cloudy,360,2012-10-11 10:55:00
6:27 AM,59.0,57.2,94,30.18,6.0,North,6.9,-,N/A,,Partly Cloudy,360,2012-10-11 11:27:00
6:56 AM,59.9,57.6,92,30.20,6.0,NNE,2.3,-,N/A,,Partly Cloudy,20,2012-10-11 11:56:00
7:21 AM,60.8,59.0,94,30.20,6.0,North,3.5,-,N/A,,Partly Cloudy,360,2012-10-11 12:21:00
7:55 AM,63.3,59.0,86,30.21,6.0,NNE,5.8,-,N/A,,Partly Cloudy,20,2012-10-11 12:55:00
8:55 AM,70.5,59.5,68,30.23,7.0,NNE,5.8,-,N/A,,Clear,30,2012-10-11 13:55:00
9:55 AM,75.9,59.4,56,30.25,8.0,NE,5.8,-,N/A,,Clear,50,2012-10-11 14:55:00
10:55 AM,79.0,59.9,52,30.24,8.0,NE,4.6,-,N/A,,Clear,40,2012-10-11 15:55:00
11:55 AM,80.2,61.9,53,30.23,10.0,ENE,2.3,-,N/A,,Clear,60,2012-10-11 16:55:00
12:55 PM,81.1,61.7,51,30.21,10.0,SSE,9.2,-,N/A,,Partly Cloudy,150,2012-10-11 17:55:00
1:55 PM,82.0,60.8,48,30.19,10.0,SSE,6.9,-,N/A,,Clear,160,2012-10-11 18:55:00
1:58 PM,80.6,60.8,51,30.19,10.0,SSE,8.1,-,N/A,,Clear,150,2012-10-11 18:58:00
2:55 PM,82.4,59.9,46,30.18,10.0,SSE,9.2,-,N/A,,Clear,160,2012-10-11 19:55:00
3:55 PM,82.6,58.8,44,30.17,10.0,SE,6.9,-,N/A,,Clear,130,2012-10-11 20:55:00
4:55 PM,79.5,64.6,60,30.17,10.0,South,6.9,-,N/A,,Clear,190,2012-10-11 21:55:00
5:55 PM,77.2,64.4,65,30.18,10.0,SW,4.6,-,N/A,,Clear,230,2012-10-11 22:55:00
6:55 PM,74.3,64.2,71,30.19,10.0,Calm,Calm,-,N/A,,Clear,0,2012-10-11 23:55:00
7:55 PM,71.4,63.7,76,30.20,10.0,Calm,Calm,-,N/A,,Clear,0,2012-10-12 00:55:00
8:55 PM,68.0,63.0,84,30.22,10.0,Calm,Calm,-,N/A,,Clear,0,2012-10-12 01:55:00
9:55 PM,66.6,61.9,85,30.22,10.0,Calm,Calm,-,N/A,,Clear,0,2012-10-12 02:55:00
10:55 PM,64.6,61.2,89,30.22,10.0,Calm,Calm,-,N/A,,Clear,0,2012-10-12 03:55:00
11:55 PM,64.0,60.8,89,30.22,10.0,NNW,3.5,-,N/A,,Clear,330,2012-10-12 04:55:00